sensor_id;sensor_type;location;lat;lon;timestamp;P1;durP1;ratioP1;P2;durP2;ratioP2
67053;SDS011;53960;51.826;5.850;2023-02-03T00:00:35;11.57;;;2.40;;
67053;SDS011;53960;51.826;5.850;2023-02-03T00:03:01;12.40;;;2.33;;
67053;SDS011;53960;51.826;5.850;2023-02-03T00:05:26;13.33;;;2.70;;
67053;SDS011;53960;51.826;5.850;2023-02-03T00:07:53;11.10;;;2.15;;
67053;SDS011;53960;51.826;5.850;2023-02-03T00:10:18;13.43;;;2.27;;
67053;SDS011;53960;51.826;5.850;2023-02-03T00:12:46;15.50;;;2.30;;
67053;SDS011;53960;51.826;5.850;2023-02-03T00:15:16;12.70;;;2.07;;
67053;SDS011;53960;51.826;5.850;2023-02-03T00:17:43;10.32;;;2.47;;
67053;SDS011;53960;51.826;5.850;2023-02-03T00:20:08;11.17;;;1.97;;
67053;SDS011;53960;51.826;5.850;2023-02-03T00:22:34;12.02;;;2.30;;
67053;SDS011;53960;51.826;5.850;2023-02-03T00:24:59;10.47;;;1.97;;
67053;SDS011;53960;51.826;5.850;2023-02-03T00:27:25;13.60;;;2.13;;
67053;SDS011;53960;51.826;5.850;2023-02-03T00:29:50;10.93;;;1.98;;
67053;SDS011;53960;51.826;5.850;2023-02-03T00:32:15;11.90;;;2.30;;
67053;SDS011;53960;51.826;5.850;2023-02-03T00:34:41;11.23;;;2.10;;
67053;SDS011;53960;51.826;5.850;2023-02-03T00:37:06;14.10;;;2.47;;
67053;SDS011;53960;51.826;5.850;2023-02-03T00:39:31;10.07;;;2.27;;
67053;SDS011;53960;51.826;5.850;2023-02-03T00:41:57;14.97;;;2.23;;
67053;SDS011;53960;51.826;5.850;2023-02-03T00:44:22;12.03;;;2.03;;
67053;SDS011;53960;51.826;5.850;2023-02-03T00:46:47;15.50;;;2.73;;
67053;SDS011;53960;51.826;5.850;2023-02-03T00:49:13;10.40;;;1.83;;
67053;SDS011;53960;51.826;5.850;2023-02-03T00:51:38;13.90;;;2.90;;
67053;SDS011;53960;51.826;5.850;2023-02-03T00:54:04;13.53;;;2.30;;
67053;SDS011;53960;51.826;5.850;2023-02-03T00:56:30;11.98;;;2.33;;
67053;SDS011;53960;51.826;5.850;2023-02-03T00:58:55;14.20;;;2.57;;
67053;SDS011;53960;51.826;5.850;2023-02-03T01:01:20;17.30;;;2.40;;
67053;SDS011;53960;51.826;5.850;2023-02-03T01:03:46;16.05;;;2.38;;
67053;SDS011;53960;51.826;5.850;2023-02-03T01:06:13;15.97;;;2.20;;
67053;SDS011;53960;51.826;5.850;2023-02-03T01:08:43;13.73;;;2.58;;
67053;SDS011;53960;51.826;5.850;2023-02-03T01:11:10;15.83;;;2.53;;
67053;SDS011;53960;51.826;5.850;2023-02-03T01:13:37;16.02;;;2.40;;
67053;SDS011;53960;51.826;5.850;2023-02-03T01:16:06;13.70;;;2.55;;
67053;SDS011;53960;51.826;5.850;2023-02-03T01:18:32;14.65;;;2.63;;
67053;SDS011;53960;51.826;5.850;2023-02-03T01:21:03;11.03;;;2.20;;
67053;SDS011;53960;51.826;5.850;2023-02-03T01:23:32;14.50;;;2.67;;
67053;SDS011;53960;51.826;5.850;2023-02-03T01:26:00;11.87;;;2.53;;
67053;SDS011;53960;51.826;5.850;2023-02-03T01:28:29;12.93;;;2.72;;
67053;SDS011;53960;51.826;5.850;2023-02-03T01:30:55;15.05;;;2.42;;
67053;SDS011;53960;51.826;5.850;2023-02-03T01:33:21;10.73;;;2.63;;
67053;SDS011;53960;51.826;5.850;2023-02-03T01:35:46;11.30;;;2.23;;
67053;SDS011;53960;51.826;5.850;2023-02-03T01:38:11;15.40;;;2.53;;
67053;SDS011;53960;51.826;5.850;2023-02-03T01:40:43;13.43;;;2.53;;
67053;SDS011;53960;51.826;5.850;2023-02-03T01:43:09;11.80;;;2.20;;
67053;SDS011;53960;51.826;5.850;2023-02-03T01:45:35;15.95;;;2.90;;
67053;SDS011;53960;51.826;5.850;2023-02-03T01:48:00;10.77;;;2.07;;
67053;SDS011;53960;51.826;5.850;2023-02-03T01:50:33;12.03;;;2.23;;
67053;SDS011;53960;51.826;5.850;2023-02-03T01:53:06;12.68;;;2.60;;
67053;SDS011;53960;51.826;5.850;2023-02-03T01:55:39;9.90;;;2.20;;
67053;SDS011;53960;51.826;5.850;2023-02-03T01:58:11;13.55;;;2.50;;
67053;SDS011;53960;51.826;5.850;2023-02-03T02:00:40;14.05;;;2.45;;
67053;SDS011;53960;51.826;5.850;2023-02-03T02:03:07;10.83;;;1.87;;
67053;SDS011;53960;51.826;5.850;2023-02-03T02:05:35;11.70;;;2.03;;
67053;SDS011;53960;51.826;5.850;2023-02-03T02:08:04;12.27;;;2.00;;
67053;SDS011;53960;51.826;5.850;2023-02-03T02:10:31;10.27;;;1.70;;
67053;SDS011;53960;51.826;5.850;2023-02-03T02:12:57;12.52;;;2.40;;
67053;SDS011;53960;51.826;5.850;2023-02-03T02:15:27;9.73;;;1.80;;
67053;SDS011;53960;51.826;5.850;2023-02-03T02:20:37;8.27;;;1.77;;
67053;SDS011;53960;51.826;5.850;2023-02-03T02:37:06;7.13;;;1.83;;
67053;SDS011;53960;51.826;5.850;2023-02-03T02:42:35;11.15;;;1.77;;
67053;SDS011;53960;51.826;5.850;2023-02-03T02:45:20;9.48;;;2.35;;
67053;SDS011;53960;51.826;5.850;2023-02-03T02:47:50;10.02;;;1.65;;
67053;SDS011;53960;51.826;5.850;2023-02-03T02:50:23;10.93;;;1.97;;
67053;SDS011;53960;51.826;5.850;2023-02-03T02:52:52;10.23;;;1.67;;
67053;SDS011;53960;51.826;5.850;2023-02-03T02:55:22;13.25;;;1.80;;
67053;SDS011;53960;51.826;5.850;2023-02-03T02:57:55;9.43;;;1.65;;
67053;SDS011;53960;51.826;5.850;2023-02-03T03:00:24;12.75;;;1.90;;
67053;SDS011;53960;51.826;5.850;2023-02-03T03:02:54;14.90;;;2.90;;
67053;SDS011;53960;51.826;5.850;2023-02-03T03:05:21;10.07;;;1.83;;
67053;SDS011;53960;51.826;5.850;2023-02-03T03:07:49;10.25;;;2.35;;
67053;SDS011;53960;51.826;5.850;2023-02-03T03:10:22;11.55;;;2.15;;
67053;SDS011;53960;51.826;5.850;2023-02-03T03:12:56;13.10;;;2.17;;
67053;SDS011;53960;51.826;5.850;2023-02-03T03:15:26;13.80;;;1.80;;
67053;SDS011;53960;51.826;5.850;2023-02-03T03:18:03;9.10;;;1.77;;
67053;SDS011;53960;51.826;5.850;2023-02-03T03:20:30;11.52;;;1.88;;
67053;SDS011;53960;51.826;5.850;2023-02-03T03:23:01;14.13;;;2.20;;
67053;SDS011;53960;51.826;5.850;2023-02-03T03:25:30;10.63;;;1.92;;
67053;SDS011;53960;51.826;5.850;2023-02-03T03:28:04;9.27;;;2.10;;
67053;SDS011;53960;51.826;5.850;2023-02-03T03:30:34;9.95;;;1.92;;
67053;SDS011;53960;51.826;5.850;2023-02-03T03:33:01;10.93;;;2.00;;
67053;SDS011;53960;51.826;5.850;2023-02-03T03:35:36;9.38;;;2.10;;
67053;SDS011;53960;51.826;5.850;2023-02-03T03:38:06;10.70;;;1.98;;
67053;SDS011;53960;51.826;5.850;2023-02-03T03:40:39;10.77;;;1.70;;
67053;SDS011;53960;51.826;5.850;2023-02-03T03:43:10;12.13;;;2.45;;
67053;SDS011;53960;51.826;5.850;2023-02-03T03:45:57;15.25;;;2.40;;
67053;SDS011;53960;51.826;5.850;2023-02-03T03:48:36;9.77;;;2.10;;
67053;SDS011;53960;51.826;5.850;2023-02-03T03:51:20;9.88;;;1.98;;
67053;SDS011;53960;51.826;5.850;2023-02-03T03:53:49;11.10;;;1.80;;
67053;SDS011;53960;51.826;5.850;2023-02-03T03:56:18;10.75;;;1.60;;
67053;SDS011;53960;51.826;5.850;2023-02-03T03:58:48;8.73;;;1.80;;
67053;SDS011;53960;51.826;5.850;2023-02-03T04:01:16;10.75;;;1.70;;
67053;SDS011;53960;51.826;5.850;2023-02-03T04:03:43;11.07;;;1.90;;
67053;SDS011;53960;51.826;5.850;2023-02-03T04:06:12;7.23;;;1.50;;
67053;SDS011;53960;51.826;5.850;2023-02-03T04:08:38;9.23;;;1.70;;
67053;SDS011;53960;51.826;5.850;2023-02-03T04:11:03;7.50;;;1.60;;
67053;SDS011;53960;51.826;5.850;2023-02-03T04:13:29;8.57;;;1.77;;
67053;SDS011;53960;51.826;5.850;2023-02-03T04:15:54;10.03;;;1.60;;
67053;SDS011;53960;51.826;5.850;2023-02-03T04:18:20;9.47;;;2.00;;
67053;SDS011;53960;51.826;5.850;2023-02-03T04:20:45;9.75;;;1.60;;
67053;SDS011;53960;51.826;5.850;2023-02-03T04:23:10;11.67;;;2.10;;
67053;SDS011;53960;51.826;5.850;2023-02-03T04:25:36;11.77;;;1.70;;
67053;SDS011;53960;51.826;5.850;2023-02-03T04:28:01;16.13;;;2.23;;
67053;SDS011;53960;51.826;5.850;2023-02-03T04:30:26;8.73;;;1.50;;
67053;SDS011;53960;51.826;5.850;2023-02-03T04:32:52;11.13;;;1.60;;
67053;SDS011;53960;51.826;5.850;2023-02-03T04:35:18;10.97;;;1.63;;
67053;SDS011;53960;51.826;5.850;2023-02-03T04:37:43;10.82;;;1.70;;
67053;SDS011;53960;51.826;5.850;2023-02-03T04:40:09;11.30;;;1.53;;
67053;SDS011;53960;51.826;5.850;2023-02-03T04:42:39;9.68;;;1.65;;
67053;SDS011;53960;51.826;5.850;2023-02-03T04:45:05;11.50;;;2.05;;
67053;SDS011;53960;51.826;5.850;2023-02-03T04:47:31;11.50;;;1.60;;
67053;SDS011;53960;51.826;5.850;2023-02-03T04:49:57;9.30;;;1.50;;
67053;SDS011;53960;51.826;5.850;2023-02-03T04:52:22;9.00;;;1.57;;
67053;SDS011;53960;51.826;5.850;2023-02-03T04:54:47;8.40;;;1.60;;
67053;SDS011;53960;51.826;5.850;2023-02-03T04:57:13;10.70;;;1.50;;
67053;SDS011;53960;51.826;5.850;2023-02-03T04:59:38;8.23;;;1.60;;
67053;SDS011;53960;51.826;5.850;2023-02-03T05:02:03;9.27;;;1.50;;
67053;SDS011;53960;51.826;5.850;2023-02-03T05:04:29;10.75;;;1.42;;
67053;SDS011;53960;51.826;5.850;2023-02-03T05:06:55;10.55;;;1.92;;
67053;SDS011;53960;51.826;5.850;2023-02-03T05:09:21;11.97;;;1.63;;
67053;SDS011;53960;51.826;5.850;2023-02-03T05:11:47;9.77;;;2.53;;
67053;SDS011;53960;51.826;5.850;2023-02-03T05:14:12;11.77;;;1.60;;
67053;SDS011;53960;51.826;5.850;2023-02-03T05:16:38;12.07;;;1.57;;
67053;SDS011;53960;51.826;5.850;2023-02-03T05:19:03;9.57;;;1.60;;
67053;SDS011;53960;51.826;5.850;2023-02-03T05:21:28;10.10;;;1.50;;
67053;SDS011;53960;51.826;5.850;2023-02-03T05:23:54;9.50;;;1.63;;
67053;SDS011;53960;51.826;5.850;2023-02-03T05:26:19;11.73;;;1.80;;
67053;SDS011;53960;51.826;5.850;2023-02-03T05:28:44;7.73;;;1.40;;
67053;SDS011;53960;51.826;5.850;2023-02-03T05:31:10;10.53;;;1.50;;
67053;SDS011;53960;51.826;5.850;2023-02-03T05:33:35;12.87;;;1.80;;
67053;SDS011;53960;51.826;5.850;2023-02-03T05:36:00;8.47;;;1.60;;
67053;SDS011;53960;51.826;5.850;2023-02-03T05:38:26;9.73;;;2.07;;
67053;SDS011;53960;51.826;5.850;2023-02-03T05:40:51;9.25;;;1.48;;
67053;SDS011;53960;51.826;5.850;2023-02-03T05:43:35;7.40;;;1.60;;
67053;SDS011;53960;51.826;5.850;2023-02-03T05:46:01;12.20;;;1.93;;
67053;SDS011;53960;51.826;5.850;2023-02-03T05:48:27;10.20;;;1.80;;
67053;SDS011;53960;51.826;5.850;2023-02-03T05:50:53;10.27;;;1.50;;
67053;SDS011;53960;51.826;5.850;2023-02-03T05:53:18;10.97;;;1.40;;
67053;SDS011;53960;51.826;5.850;2023-02-03T05:55:43;13.93;;;2.20;;
67053;SDS011;53960;51.826;5.850;2023-02-03T05:58:09;9.70;;;1.90;;
67053;SDS011;53960;51.826;5.850;2023-02-03T06:00:34;11.10;;;1.50;;
67053;SDS011;53960;51.826;5.850;2023-02-03T06:03:00;9.40;;;1.60;;
67053;SDS011;53960;51.826;5.850;2023-02-03T06:05:26;10.02;;;1.77;;
67053;SDS011;53960;51.826;5.850;2023-02-03T06:07:52;10.32;;;1.70;;
67053;SDS011;53960;51.826;5.850;2023-02-03T06:10:18;9.82;;;1.60;;
67053;SDS011;53960;51.826;5.850;2023-02-03T06:12:44;10.82;;;1.65;;
67053;SDS011;53960;51.826;5.850;2023-02-03T06:15:10;11.03;;;2.07;;
67053;SDS011;53960;51.826;5.850;2023-02-03T06:17:36;10.33;;;1.77;;
67053;SDS011;53960;51.826;5.850;2023-02-03T06:20:04;10.68;;;1.50;;
67053;SDS011;53960;51.826;5.850;2023-02-03T06:22:31;8.45;;;1.42;;
67053;SDS011;53960;51.826;5.850;2023-02-03T06:24:56;12.03;;;1.90;;
67053;SDS011;53960;51.826;5.850;2023-02-03T06:27:22;9.60;;;1.80;;
67053;SDS011;53960;51.826;5.850;2023-02-03T06:29:47;12.48;;;1.85;;
67053;SDS011;53960;51.826;5.850;2023-02-03T06:32:13;10.30;;;1.80;;
67053;SDS011;53960;51.826;5.850;2023-02-03T06:34:38;12.10;;;2.10;;
67053;SDS011;53960;51.826;5.850;2023-02-03T06:37:03;13.20;;;2.33;;
67053;SDS011;53960;51.826;5.850;2023-02-03T06:39:29;11.03;;;1.87;;
67053;SDS011;53960;51.826;5.850;2023-02-03T06:41:54;8.70;;;1.80;;
67053;SDS011;53960;51.826;5.850;2023-02-03T06:44:20;11.90;;;2.53;;
67053;SDS011;53960;51.826;5.850;2023-02-03T06:46:46;16.42;;;2.35;;
67053;SDS011;53960;51.826;5.850;2023-02-03T06:49:11;9.30;;;1.73;;
67053;SDS011;53960;51.826;5.850;2023-02-03T06:51:37;10.77;;;1.90;;
67053;SDS011;53960;51.826;5.850;2023-02-03T06:54:02;12.00;;;2.30;;
67053;SDS011;53960;51.826;5.850;2023-02-03T06:56:28;9.77;;;1.73;;
67053;SDS011;53960;51.826;5.850;2023-02-03T06:58:54;11.88;;;1.90;;
67053;SDS011;53960;51.826;5.850;2023-02-03T07:01:20;13.40;;;2.20;;
67053;SDS011;53960;51.826;5.850;2023-02-03T07:03:45;11.43;;;2.10;;
67053;SDS011;53960;51.826;5.850;2023-02-03T07:06:11;14.05;;;2.35;;
67053;SDS011;53960;51.826;5.850;2023-02-03T07:08:37;10.70;;;2.20;;
67053;SDS011;53960;51.826;5.850;2023-02-03T07:11:02;10.20;;;1.83;;
67053;SDS011;53960;51.826;5.850;2023-02-03T07:13:27;12.30;;;1.65;;
67053;SDS011;53960;51.826;5.850;2023-02-03T07:15:53;9.80;;;1.80;;
67053;SDS011;53960;51.826;5.850;2023-02-03T07:18:18;9.77;;;2.07;;
67053;SDS011;53960;51.826;5.850;2023-02-03T07:20:48;11.43;;;1.98;;
67053;SDS011;53960;51.826;5.850;2023-02-03T07:23:13;13.83;;;2.30;;
67053;SDS011;53960;51.826;5.850;2023-02-03T07:25:39;10.07;;;2.03;;
67053;SDS011;53960;51.826;5.850;2023-02-03T07:28:04;9.03;;;2.27;;
67053;SDS011;53960;51.826;5.850;2023-02-03T07:30:29;10.60;;;2.47;;
67053;SDS011;53960;51.826;5.850;2023-02-03T07:32:54;11.70;;;2.80;;
67053;SDS011;53960;51.826;5.850;2023-02-03T07:35:20;14.20;;;2.58;;
67053;SDS011;53960;51.826;5.850;2023-02-03T07:37:45;10.67;;;2.00;;
67053;SDS011;53960;51.826;5.850;2023-02-03T07:40:11;11.30;;;2.30;;
67053;SDS011;53960;51.826;5.850;2023-02-03T07:42:41;15.80;;;2.88;;
67053;SDS011;53960;51.826;5.850;2023-02-03T07:45:07;15.15;;;2.72;;
67053;SDS011;53960;51.826;5.850;2023-02-03T07:47:34;17.20;;;2.70;;
67053;SDS011;53960;51.826;5.850;2023-02-03T07:49:59;10.07;;;2.70;;
67053;SDS011;53960;51.826;5.850;2023-02-03T07:52:24;9.67;;;2.50;;
67053;SDS011;53960;51.826;5.850;2023-02-03T07:54:50;11.77;;;2.30;;
67053;SDS011;53960;51.826;5.850;2023-02-03T07:57:15;11.23;;;2.57;;
67053;SDS011;53960;51.826;5.850;2023-02-03T07:59:40;13.50;;;2.33;;
67053;SDS011;53960;51.826;5.850;2023-02-03T08:02:07;16.93;;;2.77;;
67053;SDS011;53960;51.826;5.850;2023-02-03T08:04:35;13.75;;;2.92;;
67053;SDS011;53960;51.826;5.850;2023-02-03T08:07:00;14.53;;;2.67;;
67053;SDS011;53960;51.826;5.850;2023-02-03T08:09:25;9.73;;;2.20;;
67053;SDS011;53960;51.826;5.850;2023-02-03T08:11:51;11.03;;;2.53;;
67053;SDS011;53960;51.826;5.850;2023-02-03T08:14:16;11.38;;;2.05;;
67053;SDS011;53960;51.826;5.850;2023-02-03T08:16:41;15.47;;;2.80;;
67053;SDS011;53960;51.826;5.850;2023-02-03T08:19:07;14.53;;;2.50;;
67053;SDS011;53960;51.826;5.850;2023-02-03T08:21:32;12.03;;;2.37;;
67053;SDS011;53960;51.826;5.850;2023-02-03T08:23:57;9.10;;;1.97;;
67053;SDS011;53960;51.826;5.850;2023-02-03T08:26:23;12.57;;;2.10;;
67053;SDS011;53960;51.826;5.850;2023-02-03T08:28:48;10.43;;;1.97;;
67053;SDS011;53960;51.826;5.850;2023-02-03T08:31:14;8.65;;;1.90;;
67053;SDS011;53960;51.826;5.850;2023-02-03T08:33:39;13.57;;;2.60;;
67053;SDS011;53960;51.826;5.850;2023-02-03T08:36:04;13.47;;;2.47;;
67053;SDS011;53960;51.826;5.850;2023-02-03T08:38:30;12.88;;;2.58;;
67053;SDS011;53960;51.826;5.850;2023-02-03T08:40:56;14.00;;;2.20;;
67053;SDS011;53960;51.826;5.850;2023-02-03T08:43:21;12.00;;;2.33;;
67053;SDS011;53960;51.826;5.850;2023-02-03T08:45:46;14.70;;;2.67;;
67053;SDS011;53960;51.826;5.850;2023-02-03T08:48:12;15.32;;;2.20;;
67053;SDS011;53960;51.826;5.850;2023-02-03T08:50:39;13.73;;;2.50;;
67053;SDS011;53960;51.826;5.850;2023-02-03T08:53:06;11.85;;;2.70;;
67053;SDS011;53960;51.826;5.850;2023-02-03T08:55:32;13.77;;;2.70;;
67053;SDS011;53960;51.826;5.850;2023-02-03T08:57:58;13.90;;;3.00;;
67053;SDS011;53960;51.826;5.850;2023-02-03T09:00:23;12.40;;;2.23;;
67053;SDS011;53960;51.826;5.850;2023-02-03T09:02:49;14.88;;;3.05;;
67053;SDS011;53960;51.826;5.850;2023-02-03T09:05:15;11.50;;;2.50;;
67053;SDS011;53960;51.826;5.850;2023-02-03T09:07:42;19.27;;;3.13;;
67053;SDS011;53960;51.826;5.850;2023-02-03T09:10:08;13.07;;;2.60;;
67053;SDS011;53960;51.826;5.850;2023-02-03T09:12:33;14.13;;;3.00;;
67053;SDS011;53960;51.826;5.850;2023-02-03T09:14:59;17.07;;;2.60;;
67053;SDS011;53960;51.826;5.850;2023-02-03T09:17:24;12.67;;;2.50;;
67053;SDS011;53960;51.826;5.850;2023-02-03T09:19:49;18.10;;;2.97;;
67053;SDS011;53960;51.826;5.850;2023-02-03T09:22:15;15.13;;;2.50;;
67053;SDS011;53960;51.826;5.850;2023-02-03T09:24:40;11.70;;;2.20;;
67053;SDS011;53960;51.826;5.850;2023-02-03T09:27:05;10.95;;;2.17;;
67053;SDS011;53960;51.826;5.850;2023-02-03T09:29:31;12.90;;;2.37;;
67053;SDS011;53960;51.826;5.850;2023-02-03T09:31:56;12.23;;;2.40;;
67053;SDS011;53960;51.826;5.850;2023-02-03T09:34:22;12.73;;;2.10;;
67053;SDS011;53960;51.826;5.850;2023-02-03T09:36:47;19.97;;;3.33;;
67053;SDS011;53960;51.826;5.850;2023-02-03T09:39:13;15.05;;;3.05;;
67053;SDS011;53960;51.826;5.850;2023-02-03T09:44:19;15.07;;;2.57;;
67053;SDS011;53960;51.826;5.850;2023-02-03T09:46:52;11.85;;;2.20;;
67053;SDS011;53960;51.826;5.850;2023-02-03T09:49:25;11.45;;;2.42;;
67053;SDS011;53960;51.826;5.850;2023-02-03T09:51:56;14.65;;;2.35;;
67053;SDS011;53960;51.826;5.850;2023-02-03T09:54:26;16.58;;;2.38;;
67053;SDS011;53960;51.826;5.850;2023-02-03T09:57:11;17.37;;;2.33;;
67053;SDS011;53960;51.826;5.850;2023-02-03T09:59:40;12.23;;;2.17;;
67053;SDS011;53960;51.826;5.850;2023-02-03T10:02:20;13.10;;;2.50;;
67053;SDS011;53960;51.826;5.850;2023-02-03T10:04:58;12.17;;;2.80;;
67053;SDS011;53960;51.826;5.850;2023-02-03T10:07:45;13.88;;;2.33;;
67053;SDS011;53960;51.826;5.850;2023-02-03T10:10:21;12.93;;;2.33;;
67053;SDS011;53960;51.826;5.850;2023-02-03T10:15:50;13.60;;;2.60;;
67053;SDS011;53960;51.826;5.850;2023-02-03T10:18:27;14.53;;;2.60;;
67053;SDS011;53960;51.826;5.850;2023-02-03T10:20:59;14.25;;;2.33;;
67053;SDS011;53960;51.826;5.850;2023-02-03T10:23:35;13.25;;;2.55;;
67053;SDS011;53960;51.826;5.850;2023-02-03T10:26:04;13.25;;;2.78;;
67053;SDS011;53960;51.826;5.850;2023-02-03T10:31:23;17.37;;;2.47;;
67053;SDS011;53960;51.826;5.850;2023-02-03T10:33:56;14.77;;;2.60;;
67053;SDS011;53960;51.826;5.850;2023-02-03T10:36:47;17.05;;;2.42;;
67053;SDS011;53960;51.826;5.850;2023-02-03T10:41:54;12.15;;;2.45;;
67053;SDS011;53960;51.826;5.850;2023-02-03T10:44:20;14.37;;;2.30;;
67053;SDS011;53960;51.826;5.850;2023-02-03T10:46:54;18.75;;;3.00;;
67053;SDS011;53960;51.826;5.850;2023-02-03T10:49:19;15.23;;;2.50;;
67053;SDS011;53960;51.826;5.850;2023-02-03T10:54:25;14.67;;;2.53;;
67053;SDS011;53960;51.826;5.850;2023-02-03T10:57:02;13.60;;;2.50;;
67053;SDS011;53960;51.826;5.850;2023-02-03T10:59:32;14.63;;;2.28;;
67053;SDS011;53960;51.826;5.850;2023-02-03T11:02:00;13.88;;;1.90;;
67053;SDS011;53960;51.826;5.850;2023-02-03T11:04:32;13.07;;;2.53;;
67053;SDS011;53960;51.826;5.850;2023-02-03T11:07:01;11.93;;;1.90;;
67053;SDS011;53960;51.826;5.850;2023-02-03T11:09:37;14.82;;;2.35;;
67053;SDS011;53960;51.826;5.850;2023-02-03T11:12:37;13.70;;;2.17;;
67053;SDS011;53960;51.826;5.850;2023-02-03T11:14:55;13.23;;;2.87;;
67053;SDS011;53960;51.826;5.850;2023-02-03T11:17:29;11.65;;;2.22;;
67053;SDS011;53960;51.826;5.850;2023-02-03T11:19:59;10.95;;;2.20;;
67053;SDS011;53960;51.826;5.850;2023-02-03T11:22:31;13.10;;;2.00;;
67053;SDS011;53960;51.826;5.850;2023-02-03T11:24:59;11.60;;;2.47;;
67053;SDS011;53960;51.826;5.850;2023-02-03T11:27:28;15.03;;;2.83;;
67053;SDS011;53960;51.826;5.850;2023-02-03T11:30:14;11.70;;;2.13;;
67053;SDS011;53960;51.826;5.850;2023-02-03T11:32:44;10.52;;;2.00;;
67053;SDS011;53960;51.826;5.850;2023-02-03T11:35:13;15.35;;;2.33;;
67053;SDS011;53960;51.826;5.850;2023-02-03T11:37:45;13.25;;;2.33;;
67053;SDS011;53960;51.826;5.850;2023-02-03T11:42:44;13.52;;;2.22;;
67053;SDS011;53960;51.826;5.850;2023-02-03T11:45:27;8.30;;;1.67;;
67053;SDS011;53960;51.826;5.850;2023-02-03T12:01:24;10.52;;;1.88;;
67053;SDS011;53960;51.826;5.850;2023-02-03T12:15:43;9.23;;;2.10;;
67053;SDS011;53960;51.826;5.850;2023-02-03T12:18:26;7.47;;;2.13;;
67053;SDS011;53960;51.826;5.850;2023-02-03T12:21:02;8.85;;;1.83;;
67053;SDS011;53960;51.826;5.850;2023-02-03T12:26:02;10.53;;;2.20;;
67053;SDS011;53960;51.826;5.850;2023-02-03T12:31:14;9.70;;;2.40;;
67053;SDS011;53960;51.826;5.850;2023-02-03T12:33:47;8.48;;;1.80;;
67053;SDS011;53960;51.826;5.850;2023-02-03T12:36:21;13.00;;;2.30;;
67053;SDS011;53960;51.826;5.850;2023-02-03T12:41:57;9.07;;;2.10;;
67053;SDS011;53960;51.826;5.850;2023-02-03T12:44:30;8.63;;;2.10;;
67053;SDS011;53960;51.826;5.850;2023-02-03T12:47:12;11.07;;;1.90;;
67053;SDS011;53960;51.826;5.850;2023-02-03T12:49:43;8.35;;;1.80;;
67053;SDS011;53960;51.826;5.850;2023-02-03T12:55:15;9.30;;;1.75;;
67053;SDS011;53960;51.826;5.850;2023-02-03T13:00:23;9.80;;;2.30;;
67053;SDS011;53960;51.826;5.850;2023-02-03T13:03:05;10.68;;;2.10;;
67053;SDS011;53960;51.826;5.850;2023-02-03T13:08:35;9.27;;;1.98;;
67053;SDS011;53960;51.826;5.850;2023-02-03T13:11:09;10.50;;;2.03;;
67053;SDS011;53960;51.826;5.850;2023-02-03T13:13:42;8.05;;;1.70;;
67053;SDS011;53960;51.826;5.850;2023-02-03T13:16:12;11.85;;;1.83;;
67053;SDS011;53960;51.826;5.850;2023-02-03T13:18:41;9.83;;;2.60;;
67053;SDS011;53960;51.826;5.850;2023-02-03T13:21:11;9.23;;;2.13;;
67053;SDS011;53960;51.826;5.850;2023-02-03T13:23:39;12.67;;;2.37;;
67053;SDS011;53960;51.826;5.850;2023-02-03T13:31:26;11.25;;;2.72;;
67053;SDS011;53960;51.826;5.850;2023-02-03T13:39:40;14.05;;;2.78;;
67053;SDS011;53960;51.826;5.850;2023-02-03T13:42:26;11.40;;;2.55;;
67053;SDS011;53960;51.826;5.850;2023-02-03T13:47:54;13.23;;;2.37;;
67053;SDS011;53960;51.826;5.850;2023-02-03T13:50:25;13.13;;;2.78;;
67053;SDS011;53960;51.826;5.850;2023-02-03T13:53:00;10.00;;;2.28;;
67053;SDS011;53960;51.826;5.850;2023-02-03T13:55:37;11.50;;;2.67;;
67053;SDS011;53960;51.826;5.850;2023-02-03T13:58:05;12.02;;;2.78;;
67053;SDS011;53960;51.826;5.850;2023-02-03T14:03:15;14.60;;;2.80;;
67053;SDS011;53960;51.826;5.850;2023-02-03T14:05:50;12.23;;;2.87;;
67053;SDS011;53960;51.826;5.850;2023-02-03T14:13:53;15.65;;;2.67;;
67053;SDS011;53960;51.826;5.850;2023-02-03T14:16:46;11.20;;;2.80;;
67053;SDS011;53960;51.826;5.850;2023-02-03T14:19:58;17.83;;;3.00;;
67053;SDS011;53960;51.826;5.850;2023-02-03T14:24:29;12.60;;;2.28;;
67053;SDS011;53960;51.826;5.850;2023-02-03T14:26:56;17.00;;;3.22;;
67053;SDS011;53960;51.826;5.850;2023-02-03T14:31:52;15.47;;;3.53;;
67053;SDS011;53960;51.826;5.850;2023-02-03T14:34:39;17.23;;;3.28;;
67053;SDS011;53960;51.826;5.850;2023-02-03T14:37:28;9.65;;;2.63;;
67053;SDS011;53960;51.826;5.850;2023-02-03T14:40:16;15.15;;;2.75;;
67053;SDS011;53960;51.826;5.850;2023-02-03T14:43:08;12.60;;;2.90;;
67053;SDS011;53960;51.826;5.850;2023-02-03T14:45:43;16.00;;;2.70;;
67053;SDS011;53960;51.826;5.850;2023-02-03T14:51:46;12.38;;;2.60;;
67053;SDS011;53960;51.826;5.850;2023-02-03T15:05:43;14.93;;;2.78;;
67053;SDS011;53960;51.826;5.850;2023-02-03T15:13:50;12.10;;;2.83;;
67053;SDS011;53960;51.826;5.850;2023-02-03T15:16:17;9.38;;;2.38;;
67053;SDS011;53960;51.826;5.850;2023-02-03T15:18:44;13.77;;;2.75;;
67053;SDS011;53960;51.826;5.850;2023-02-03T15:21:16;13.43;;;2.13;;
67053;SDS011;53960;51.826;5.850;2023-02-03T15:23:43;17.20;;;2.75;;
67053;SDS011;53960;51.826;5.850;2023-02-03T15:26:16;13.27;;;2.70;;
67053;SDS011;53960;51.826;5.850;2023-02-03T15:28:45;15.50;;;3.22;;
67053;SDS011;53960;51.826;5.850;2023-02-03T15:31:18;21.00;;;3.43;;
67053;SDS011;53960;51.826;5.850;2023-02-03T15:33:47;13.82;;;3.22;;
67053;SDS011;53960;51.826;5.850;2023-02-03T15:36:17;17.65;;;3.13;;
67053;SDS011;53960;51.826;5.850;2023-02-03T15:38:47;14.15;;;2.53;;
67053;SDS011;53960;51.826;5.850;2023-02-03T15:41:21;17.83;;;3.35;;
67053;SDS011;53960;51.826;5.850;2023-02-03T15:43:48;14.87;;;2.47;;
67053;SDS011;53960;51.826;5.850;2023-02-03T15:46:31;14.68;;;3.08;;
67053;SDS011;53960;51.826;5.850;2023-02-03T15:49:05;17.02;;;3.03;;
67053;SDS011;53960;51.826;5.850;2023-02-03T15:51:43;16.40;;;2.53;;
67053;SDS011;53960;51.826;5.850;2023-02-03T15:56:45;13.70;;;2.50;;
67053;SDS011;53960;51.826;5.850;2023-02-03T15:59:38;15.48;;;2.92;;
67053;SDS011;53960;51.826;5.850;2023-02-03T16:02:20;18.38;;;3.00;;
67053;SDS011;53960;51.826;5.850;2023-02-03T16:04:51;18.50;;;2.50;;
67053;SDS011;53960;51.826;5.850;2023-02-03T16:07:21;16.70;;;2.75;;
67053;SDS011;53960;51.826;5.850;2023-02-03T16:09:52;19.83;;;3.40;;
67053;SDS011;53960;51.826;5.850;2023-02-03T16:12:26;20.35;;;3.08;;
67053;SDS011;53960;51.826;5.850;2023-02-03T16:14:54;17.50;;;3.00;;
67053;SDS011;53960;51.826;5.850;2023-02-03T16:17:25;16.45;;;3.05;;
67053;SDS011;53960;51.826;5.850;2023-02-03T16:23:19;17.83;;;2.87;;
67053;SDS011;53960;51.826;5.850;2023-02-03T16:25:28;18.25;;;2.58;;
67053;SDS011;53960;51.826;5.850;2023-02-03T16:27:56;21.70;;;4.93;;
67053;SDS011;53960;51.826;5.850;2023-02-03T16:33:43;16.05;;;2.80;;
67053;SDS011;53960;51.826;5.850;2023-02-03T16:36:28;16.50;;;2.50;;
67053;SDS011;53960;51.826;5.850;2023-02-03T16:39:12;19.38;;;2.80;;
67053;SDS011;53960;51.826;5.850;2023-02-03T16:41:56;16.83;;;2.50;;
67053;SDS011;53960;51.826;5.850;2023-02-03T16:44:43;15.52;;;2.78;;
67053;SDS011;53960;51.826;5.850;2023-02-03T16:47:28;21.70;;;3.35;;
67053;SDS011;53960;51.826;5.850;2023-02-03T16:50:15;14.97;;;2.40;;
67053;SDS011;53960;51.826;5.850;2023-02-03T16:53:01;14.48;;;2.60;;
67053;SDS011;53960;51.826;5.850;2023-02-03T16:55:26;19.70;;;3.45;;
67053;SDS011;53960;51.826;5.850;2023-02-03T16:57:52;16.90;;;2.60;;
67053;SDS011;53960;51.826;5.850;2023-02-03T17:00:17;17.57;;;2.97;;
67053;SDS011;53960;51.826;5.850;2023-02-03T17:02:46;17.10;;;3.10;;